Other Surface Observations
Issued by NWS

Home | Current Version | Previous Version | Text Only | Print | Product List | Glossary On
Versions: 1 2 3 4 5 6 7 8 9 10 11 12 13 14 15 16 17 18 19 20 21 22 23 24 25 26 27 28 29 30 31 32 33 34 35 36 37 38 39 40 41 42 43 44 45 46 47 48 49 50
310
SXUS54 KWBC 191649
OSOGT
:SHEF ENCODED 6-MINUTE NOS MET DATA
:NATIONAL WATER LEVEL OBSERVATION NETWORK (NWLON)
:TA(AIR TEMP DEG F)  SLP(SEA LEVEL PRESSURE INCHES)
:UD(WIND DIRECTION WHOLE DEGREES) US (WIND SPEED MPH)
:TW(WATER TEMP DEG F) UG(WIND GUSTS MPH) WC(CONDUCTIVITY uMHOS/CM)
:-9999 (MISSING VALUES)
:TIME ZONE IS LST
:PROVIDED BY DOC/NOAA/NOS/CO-OPS, (301) 713-2540
:corms@noaa.gov
.A OBGN6 20190819 ES DH1130/TAIRG    79/UGIRG -9999/PLIRG 29.90/UDIRG -9999/USIRG -9999/TWIRG    71/WCIRG -9999
.A ALXN6 20190819 ES DH1136/TAIRP -9999/UGIRP -9999/PLIRP -9999/UDIRP -9999/USIRP -9999/TWIRP    73/WCIRG -9999
.A ALXN6 20190819 ES DH1130/TAIRG -9999/UGIRG -9999/PLIRG 29.92/UDIRG -9999/USIRG -9999/TWIRG    73/WCIRG -9999
.A AGCM4 20190819 ES DH1130/TAIRG    76/UGIRG -9999/PLIRG 30.05/UDIRG -9999/USIRG -9999/TWIRG    74/WCIRG -9999
.A MBRM4 20190819 ES DH1130/TAIRG    82/UGIRG -9999/PLIRG 30.04/UDIRG -9999/USIRG -9999/TWIRG -9999/WCIRG -9999
.A FTGM4 20190819 ES DH1130/TAIRG    71/UGIRG    10/PLIRG 30.04/UDIRG    61/USIRG     8/TWIRG -9999/WCIRG -9999
.A OSGN6 20190819 ES DH1130/TAIRG    74/UGIRG    17/PLIRG 29.98/UDIRG   272/USIRG    14/TWIRG -9999/WCIRG -9999
.A RCRN6 20190819 ES DH1130/TAIRG    72/UGIRG -9999/PLIRG 29.97/UDIRG -9999/USIRG -9999/TWIRG -9999/WCIRG -9999
.A NIAN6 20190819 ES DH1130/TAIRG    76/UGIRG -9999/PLIRG 30.03/UDIRG -9999/USIRG -9999/TWIRG -9999/WCIRG -9999
.E BUFN6 20190819 ES DH1130/TAIRG/DIN06/   73/   73
.E BUFN6 20190819 ES DH1130/PLIRG/DIN06/30.05/30.05
.E BUFN6 20190819 ES DH1130/USIRG/DIN06/   14/   13
.E BUFN6 20190819 ES DH1130/UDIRG/DIN06/  234/  239
.E BUFN6 20190819 ES DH1130/UGIRG/DIN06/   18/   18
.E BUFN6 20190819 ES DH1130/TWIRG/DIN06/   76/   76
.A PSTN6 20190819 ES DH1130/TAIRG    73/UGIRG -9999/PLIRG 30.04/UDIRG -9999/USIRG -9999/TWIRG -9999/WCIRG -9999
.A EREP1 20190819 ES DH1136/TAIRP -9999/UGIRP    13/PLIRP -9999/UDIRP   285/USIRP     6/TWIRP -9999/WCIRG -9999
.E EREP1 20190819 ES DH1130/USIRG/DIN06/    7/    6
.E EREP1 20190819 ES DH1130/UDIRG/DIN06/  271/  285
.E EREP1 20190819 ES DH1130/UGIRG/DIN06/   15/   13
.A FAIO1 20190819 ES DH1136/TAIRP    76/UGIRP    12/PLIRP 30.07/UDIRP   252/USIRP    11/TWIRP    78/WCIRP -9999
.E FAIO1 20190819 ES DH1130/TAIRG/DIN06/   76/   76
.E FAIO1 20190819 ES DH1130/PLIRG/DIN06/30.07/30.07
.E FAIO1 20190819 ES DH1130/USIRG/DIN06/   11/   11
.E FAIO1 20190819 ES DH1130/UDIRG/DIN06/  255/  253
.E FAIO1 20190819 ES DH1130/UGIRG/DIN06/   13/   13
.E FAIO1 20190819 ES DH1130/TWIRG/DIN06/   78/   78
.A CNDO1 20190819 ES DH1130/TAIRG    73/UGIRG     5/PLIRG 30.07/UDIRG   317/USIRG     4/TWIRG    78/WCIRG -9999
.A MRHO1 20190819 ES DH1130/TAIRG    73/UGIRG     6/PLIRG 30.06/UDIRG   323/USIRG     4/TWIRG    76/WCIRG -9999
.E THRO1 20190819 ES DH1130/TAIRG/DIN06/   75/   75
.E THRO1 20190819 ES DH1130/PLIRG/DIN06/30.07/30.07
.E THRO1 20190819 ES DH1130/USIRG/DIN06/    2/    0
.E THRO1 20190819 ES DH1130/UDIRG/DIN06/   80/  115
.E THRO1 20190819 ES DH1130/UGIRG/DIN06/    4/    3
.A HRBM4 20190819 ES DH1136/TAIRP    70/UGIRP     9/PLIRP 30.06/UDIRP   143/USIRP     8/TWIRP    73/WCIRP -9999
.E HRBM4 20190819 ES DH1130/TAIRG/DIN06/   69/   70
.E HRBM4 20190819 ES DH1130/PLIRG/DIN06/30.06/30.06
.E HRBM4 20190819 ES DH1130/USIRG/DIN06/    8/    8
.E HRBM4 20190819 ES DH1130/UDIRG/DIN06/  129/  143
.E HRBM4 20190819 ES DH1130/UGIRG/DIN06/    9/    9
.E HRBM4 20190819 ES DH1130/TWIRG/DIN06/   73/   73
.E LPNM4 20190819 ES DH1130/TAIRG/DIN06/   74/   74
.E LPNM4 20190819 ES DH1130/PLIRG/DIN06/30.03/30.03
.E LPNM4 20190819 ES DH1130/USIRG/DIN06/    5/    8
.E LPNM4 20190819 ES DH1130/UDIRG/DIN06/  295/  324
.E LPNM4 20190819 ES DH1130/UGIRG/DIN06/   10/   11
.E LPNM4 20190819 ES DH1130/TWIRG/DIN06/   62/   62
.E MACM4 20190819 ES DH1130/TAIRG/DIN06/   73/   73
.E MACM4 20190819 ES DH1130/PLIRG/DIN06/30.03/30.03
.E MACM4 20190819 ES DH1130/USIRG/DIN06/   11/   13
.E MACM4 20190819 ES DH1130/UDIRG/DIN06/  275/  281
.E MACM4 20190819 ES DH1130/UGIRG/DIN06/   18/   17
.E MACM4 20190819 ES DH1130/TWIRG/DIN06/   67/   67
.A DTLM4 20190819 ES DH1136/TAIRP    71/UGIRP    14/PLIRP 29.98/UDIRP   223/USIRP     7/TWIRP    63/WCIRP -9999
.A DTLM4 20190819 ES DH1130/TAIRG    70/UGIRG    13/PLIRG 29.98/UDIRG   216/USIRG     9/TWIRG    63/WCIRG -9999
.A RCKM4 20190819 ES DH1130/TAIRG -9999/UGIRG    15/PLIRG 29.99/UDIRG   279/USIRG     9/TWIRG    67/WCIRG -9999
.A WNEM4 20190819 ES DH1130/TAIRG    74/UGIRG    17/PLIRG 29.97/UDIRG   271/USIRG    10/TWIRG    62/WCIRG -9999
.E LTRM4 20190819 ES DH1130/TAIRG/DIN06/   72/   72
.E LTRM4 20190819 ES DH1130/PLIRG/DIN06/29.98/29.98
.E LTRM4 20190819 ES DH1130/USIRG/DIN06/    7/    7
.E LTRM4 20190819 ES DH1130/UDIRG/DIN06/  272/  273
.E LTRM4 20190819 ES DH1130/UGIRG/DIN06/   13/   12
.E LTRM4 20190819 ES DH1130/TWIRG/DIN06/   61/   61
.A SWPM4 20190819 ES DH1136/TAIRP    68/UGIRP    14/PLIRP 29.95/UDIRP   253/USIRP    12/TWIRP    66/WCIRP -9999
.A SWPM4 20190819 ES DH1130/TAIRG    69/UGIRG    13/PLIRG 29.95/UDIRG   250/USIRG    12/TWIRG    66/WCIRG -9999
.A LDTM4 20190819 ES DH1130/TAIRG    75/UGIRG     6/PLIRG 30.02/UDIRG   222/USIRG     2/TWIRG -9999/WCIRG -9999
.A HLNM4 20190819 ES DH1130/TAIRG    74/UGIRG     9/PLIRG 30.03/UDIRG   224/USIRG     8/TWIRG -9999/WCIRG -9999
.A CMTI2 20190819 CS DH1036/TAIRP    77/UGIRP    12/PLIRP 30.01/UDIRP    23/USIRP     9/TWIRP -9999/WCIRP -9999
.A CMTI2 20190819 CS DH1036/TAIRG    77/UGIRG    12/PLIRG 30.01/UDIRG    23/USIRG     9/TWIRG -9999/WCIRG -9999
.E KWNW3 20190819 CS DH1030/TAIRG/DIN06/   70/   69
.E KWNW3 20190819 CS DH1030/PLIRG/DIN06/30.02/30.02
.E KWNW3 20190819 CS DH1030/USIRG/DIN06/    4/    7
.E KWNW3 20190819 CS DH1030/UDIRG/DIN06/  148/  153
.E KWNW3 20190819 CS DH1030/UGIRG/DIN06/    6/    9
.E MNMM4 20190819 CS DH1030/TAIRG/DIN06/   67/   67
.E MNMM4 20190819 CS DH1030/PLIRG/DIN06/30.02/30.01
.E MNMM4 20190819 CS DH1030/USIRG/DIN06/    8/    7
.E MNMM4 20190819 CS DH1030/UDIRG/DIN06/  156/  151
.E MNMM4 20190819 CS DH1030/UGIRG/DIN06/   10/   10
.E MNMM4 20190819 CS DH1030/TWIRG/DIN06/   68/   68
.A PNLM4 20190819 ES DH1130/TAIRG    67/UGIRG    13/PLIRG 30.00/UDIRG   212/USIRG    11/TWIRG    71/WCIRG -9999
.A PTIM4 20190819 ES DH1130/TAIRG    67/UGIRG     5/PLIRG 29.98/UDIRG   341/USIRG     4/TWIRG -9999/WCIRG -9999
.A MCGM4 20190819 ES DH1130/TAIRG    73/UGIRG    11/PLIRG 29.94/UDIRG   222/USIRG     6/TWIRG -9999/WCIRG -9999
.A DULM5 20190819 CS DH1030/TAIRG    73/UGIRG    18/PLIRG 29.93/UDIRG   213/USIRG    14/TWIRG    67/WCIRG -9999
.A GDMM5 20190819 CS DH1030/TAIRG    64/UGIRG -9999/PLIRG 29.91/UDIRG -9999/USIRG -9999/TWIRG    51/WCIRG -9999



USA.gov is the U.S. government's official web portal to all federal, state and local government web resources and services.